createdAt,value
2022-10-05T00:00:57.022Z,75.52
2022-10-05T00:03:25.556Z,75.62
2022-10-05T00:05:52.002Z,75.96
2022-10-05T00:08:19.419Z,76.28
2022-10-05T00:10:46.576Z,76.38
2022-10-05T00:13:20.028Z,76.76
2022-10-05T00:15:47.622Z,76.94
2022-10-05T00:18:15.921Z,77.06
2022-10-05T00:20:43.155Z,77.26
2022-10-05T00:23:22.038Z,76.92
2022-10-05T00:25:48.560Z,77.09
2022-10-05T00:28:35.267Z,77.24
2022-10-05T00:31:01.674Z,77.27
2022-10-05T00:33:28.429Z,77.35
2022-10-05T00:35:55.473Z,77.39
2022-10-05T00:38:21.971Z,77.43
2022-10-05T00:41:08.294Z,77.54
2022-10-05T00:43:43.688Z,77.54
2022-10-05T00:46:24.261Z,77.56
2022-10-05T00:49:11.095Z,77.65
2022-10-05T00:51:38.808Z,77.65
2022-10-05T00:54:33.951Z,77.69
2022-10-05T00:57:12.482Z,78.00
2022-10-05T01:00:05.072Z,78.04
2022-10-05T01:02:58.414Z,78.21
2022-10-05T01:05:33.280Z,77.90
2022-10-05T01:08:32.050Z,78.05
2022-10-05T01:11:06.306Z,78.10
2022-10-05T01:13:35.075Z,78.12
2022-10-05T01:16:08.248Z,77.96
2022-10-05T01:18:48.993Z,77.87
2022-10-05T01:21:20.232Z,77.82
2022-10-05T01:24:11.535Z,77.67
2022-10-05T01:27:01.475Z,77.33
2022-10-05T01:29:50.138Z,76.20
2022-10-05T01:32:20.713Z,75.48
2022-10-05T01:34:58.262Z,75.43
2022-10-05T01:37:35.102Z,75.27
2022-10-05T01:40:20.424Z,76.65
2022-10-05T01:42:56.165Z,77.00
2022-10-05T01:45:22.531Z,76.31
2022-10-05T01:47:51.757Z,76.77
2022-10-05T01:50:56.614Z,77.37
2022-10-05T01:53:45.946Z,77.79
2022-10-05T01:56:30.492Z,77.47
2022-10-05T01:59:18.845Z,77.99
2022-10-05T02:01:59.224Z,77.90
2022-10-05T02:05:00.904Z,77.86
2022-10-05T02:07:28.975Z,78.09
2022-10-05T02:09:59.588Z,77.99
2022-10-05T02:12:29.719Z,78.29
2022-10-05T02:15:00.905Z,78.40
2022-10-05T02:17:39.753Z,78.58
2022-10-05T02:20:10.103Z,78.40
2022-10-05T02:22:42.470Z,78.34
2022-10-05T02:25:13.587Z,78.76
2022-10-05T02:27:46.873Z,78.77
2022-10-05T02:30:16.496Z,78.75
2022-10-05T02:33:08.109Z,78.61
2022-10-05T02:35:34.561Z,78.09
2022-10-05T02:38:27.222Z,78.06
2022-10-05T02:41:33.582Z,77.92
2022-10-05T02:44:06.708Z,77.35
2022-10-05T02:46:43.493Z,77.52
2022-10-05T02:49:43.981Z,77.39
2022-10-05T02:52:38.776Z,77.55
2022-10-05T02:55:15.348Z,77.56
2022-10-05T02:57:51.888Z,77.57
2022-10-05T03:00:21.652Z,77.26
2022-10-05T03:03:06.500Z,77.32
2022-10-05T03:05:55.983Z,76.99
2022-10-05T03:08:28.678Z,76.33
2022-10-05T03:11:10.083Z,76.65
2022-10-05T03:14:01.901Z,76.46
2022-10-05T03:16:28.326Z,76.42
2022-10-05T03:19:11.933Z,76.48
2022-10-05T03:22:01.930Z,76.58
2022-10-05T03:24:41.346Z,76.60
2022-10-05T03:27:29.534Z,77.18
2022-10-05T03:30:13.932Z,77.57
2022-10-05T03:32:45.245Z,77.51
2022-10-05T03:35:31.927Z,77.70
2022-10-05T03:38:04.402Z,78.01
2022-10-05T03:40:36.884Z,78.66
2022-10-05T03:43:34.271Z,79.13
2022-10-05T03:46:06.607Z,79.72
2022-10-05T03:48:40.310Z,80.15
2022-10-05T03:51:23.209Z,79.79
2022-10-05T03:53:54.724Z,80.13
2022-10-05T03:56:36.358Z,80.43
2022-10-05T03:59:32.772Z,80.38
2022-10-05T04:02:05.361Z,80.63
2022-10-05T04:04:55.580Z,80.59
2022-10-05T04:07:27.919Z,80.61
2022-10-05T04:09:55.936Z,80.53
2022-10-05T04:12:26.334Z,80.46
2022-10-05T04:15:44.980Z,80.57
2022-10-05T04:18:32.632Z,80.56
2022-10-05T04:21:03.671Z,80.46
2022-10-05T04:23:53.572Z,80.48
2022-10-05T04:26:26.990Z,80.63
2022-10-05T04:29:32.577Z,80.65
2022-10-05T04:32:27.308Z,80.47
2022-10-05T04:35:02.114Z,80.39
2022-10-05T04:37:42.187Z,80.16
2022-10-05T04:40:33.995Z,79.97
2022-10-05T04:43:13.410Z,79.74
2022-10-05T04:45:42.873Z,79.60
2022-10-05T04:48:17.325Z,79.18
2022-10-05T04:51:03.532Z,79.15
2022-10-05T04:53:57.273Z,78.90
2022-10-05T04:56:53.953Z,78.46
2022-10-05T04:59:40.092Z,78.27
2022-10-05T05:02:20.059Z,78.57
2022-10-05T05:05:12.680Z,78.75
2022-10-05T05:07:48.147Z,78.85
2022-10-05T05:10:30.133Z,78.54
2022-10-05T05:13:13.262Z,78.84
2022-10-05T05:15:52.214Z,79.97
2022-10-05T05:18:38.407Z,80.33
2022-10-05T05:21:30.997Z,80.84
2022-10-05T05:23:57.387Z,80.69
2022-10-05T05:26:29.903Z,80.87
2022-10-05T05:29:05.761Z,81.08
2022-10-05T05:31:53.947Z,81.30
2022-10-05T05:34:23.293Z,81.23
2022-10-05T05:37:02.601Z,81.05
2022-10-05T05:39:51.016Z,81.11
2022-10-05T05:42:44.338Z,81.10
2022-10-05T05:45:23.898Z,81.60
2022-10-05T05:47:54.756Z,81.59
2022-10-05T05:50:40.166Z,81.29
2022-10-05T05:53:14.755Z,81.25
2022-10-05T05:55:44.358Z,81.33
2022-10-05T05:58:16.691Z,81.09
2022-10-05T06:00:47.426Z,81.10
2022-10-05T06:03:22.969Z,81.02
2022-10-05T06:05:53.256Z,80.84
2022-10-05T06:08:27.962Z,80.92
2022-10-05T06:11:08.770Z,81.16
2022-10-05T06:13:38.646Z,80.71
2022-10-05T06:16:10.180Z,80.71
2022-10-05T06:18:38.510Z,80.83
2022-10-05T06:21:20.807Z,80.73
2022-10-05T06:24:10.995Z,80.84
2022-10-05T06:27:08.890Z,80.85
2022-10-05T06:30:04.902Z,81.27
2022-10-05T06:32:47.488Z,81.10
2022-10-05T06:35:32.153Z,81.45
2022-10-05T06:38:08.069Z,81.40
2022-10-05T06:40:59.326Z,81.88
2022-10-05T06:43:29.457Z,82.32
2022-10-05T06:46:02.033Z,82.25
2022-10-05T06:48:41.067Z,82.21
2022-10-05T06:51:23.357Z,82.39
2022-10-05T06:54:04.029Z,82.59
2022-10-05T06:56:49.769Z,82.50
2022-10-05T06:59:32.694Z,82.67
2022-10-05T07:02:19.203Z,82.66
2022-10-05T07:04:54.732Z,82.66
2022-10-05T07:07:28.831Z,82.84
2022-10-05T07:10:40.586Z,83.22
2022-10-05T07:13:09.961Z,83.24
2022-10-05T07:16:01.868Z,83.27
2022-10-05T07:18:46.877Z,83.13
2022-10-05T07:21:26.546Z,83.37
2022-10-05T07:24:29.127Z,83.22
2022-10-05T07:27:18.315Z,83.20
2022-10-05T07:30:04.547Z,83.06
2022-10-05T07:32:43.149Z,82.67
2022-10-05T07:35:37.555Z,82.74
2022-10-05T07:38:10.949Z,82.82
2022-10-05T07:40:48.674Z,82.83
2022-10-05T07:44:00.545Z,82.66
2022-10-05T07:46:36.612Z,82.59
2022-10-05T07:49:26.662Z,82.14
2022-10-05T07:51:57.270Z,82.43
2022-10-05T07:54:56.513Z,82.14
2022-10-05T07:57:38.668Z,81.79
2022-10-05T08:00:09.160Z,81.46
2022-10-05T08:02:44.410Z,81.13
2022-10-05T08:05:20.386Z,80.92
2022-10-05T08:07:47.838Z,80.48
2022-10-05T08:10:14.407Z,80.24
2022-10-05T08:12:55.171Z,80.22
2022-10-05T08:15:24.852Z,80.05
2022-10-05T08:17:51.194Z,79.65
2022-10-05T08:20:21.099Z,79.57
2022-10-05T08:22:54.149Z,79.68
2022-10-05T08:25:37.944Z,79.43
2022-10-05T08:28:18.444Z,79.35
2022-10-05T08:31:07.913Z,79.96
2022-10-05T08:33:51.622Z,79.53
2022-10-05T08:36:22.956Z,79.66
2022-10-05T08:38:51.692Z,79.22
2022-10-05T08:41:46.828Z,79.04
2022-10-05T08:44:52.482Z,78.63
2022-10-05T08:47:37.211Z,78.44
2022-10-05T08:50:30.971Z,78.40
2022-10-05T08:53:23.589Z,77.88
2022-10-05T08:55:49.879Z,77.95
2022-10-05T08:58:49.322Z,77.76
2022-10-05T09:01:26.200Z,77.07
2022-10-05T09:04:24.990Z,76.85
2022-10-05T09:07:13.188Z,76.94
2022-10-05T09:10:01.499Z,77.17
2022-10-05T09:12:53.241Z,77.42
2022-10-05T09:15:31.751Z,76.19
2022-10-05T09:18:13.366Z,75.87
2022-10-05T09:21:02.982Z,75.66
2022-10-05T09:23:42.914Z,75.12
2022-10-05T09:26:40.594Z,75.23
2022-10-05T09:29:44.579Z,75.20
2022-10-05T09:32:32.876Z,75.44
2022-10-05T09:35:22.736Z,75.34
2022-10-05T09:38:10.555Z,75.50
2022-10-05T09:40:44.570Z,75.50
2022-10-05T09:43:35.698Z,76.18
2022-10-05T09:46:48.096Z,76.12
2022-10-05T09:49:21.365Z,76.31
2022-10-05T09:52:06.505Z,75.84
2022-10-05T09:55:01.589Z,75.78
2022-10-05T09:57:53.156Z,75.25
2022-10-05T10:00:23.874Z,74.78
2022-10-05T10:02:58.917Z,74.85
2022-10-05T10:05:34.423Z,74.57
2022-10-05T10:08:05.994Z,74.41
2022-10-05T10:11:03.414Z,74.41
2022-10-05T10:14:04.310Z,74.53
2022-10-05T10:16:42.685Z,74.80
2022-10-05T10:19:40.818Z,74.47
2022-10-05T10:22:17.734Z,74.08
2022-10-05T10:25:05.556Z,73.75
2022-10-05T10:27:56.787Z,73.03
2022-10-05T10:31:00.706Z,72.75
2022-10-05T10:33:43.038Z,72.68
2022-10-05T10:36:22.460Z,71.88
2022-10-05T10:38:58.454Z,71.08
2022-10-05T10:41:38.520Z,69.73
2022-10-05T10:44:23.773Z,69.28
2022-10-05T10:47:09.465Z,68.90
2022-10-05T10:50:13.294Z,68.67
2022-10-05T10:53:04.683Z,68.63
2022-10-05T10:55:41.124Z,68.18
2022-10-05T10:58:37.965Z,67.41
2022-10-05T11:01:18.313Z,67.24
2022-10-05T11:04:22.550Z,66.97
2022-10-05T11:07:30.517Z,66.64
2022-10-05T11:10:07.013Z,66.34
2022-10-05T11:13:24.844Z,65.45
2022-10-05T11:16:03.435Z,65.46
2022-10-05T11:19:02.169Z,65.42
2022-10-05T11:21:49.827Z,65.22
2022-10-05T11:24:28.495Z,64.44
2022-10-05T11:27:13.605Z,64.11
2022-10-05T11:30:17.702Z,63.96
2022-10-05T11:33:01.184Z,63.36
2022-10-05T11:35:49.308Z,62.95
2022-10-05T11:38:49.229Z,62.31
2022-10-05T11:41:41.771Z,61.34
2022-10-05T11:44:17.213Z,62.08
2022-10-05T11:46:49.170Z,61.41
2022-10-05T11:49:25.597Z,61.24
2022-10-05T11:52:00.161Z,60.95
2022-10-05T11:54:58.485Z,61.31
2022-10-05T11:57:41.097Z,62.55
2022-10-05T12:00:36.863Z,61.42
2022-10-05T12:03:11.082Z,61.67
2022-10-05T12:05:47.570Z,62.52
2022-10-05T12:08:27.891Z,62.79
2022-10-05T12:11:07.981Z,62.85
2022-10-05T12:13:47.865Z,63.12
2022-10-05T12:16:35.225Z,62.47
2022-10-05T12:19:16.570Z,62.30
2022-10-05T12:21:59.826Z,62.04
2022-10-05T12:24:48.005Z,61.50
2022-10-05T12:27:19.073Z,61.79
2022-10-05T12:30:04.204Z,61.29
2022-10-05T12:32:33.984Z,61.09
2022-10-05T12:35:03.411Z,61.28
2022-10-05T12:38:03.610Z,60.88
2022-10-05T12:40:51.843Z,60.86
2022-10-05T12:43:39.710Z,61.09
2022-10-05T12:46:39.621Z,61.10
2022-10-05T12:49:22.241Z,60.94
2022-10-05T12:51:57.705Z,60.92
2022-10-05T12:54:27.025Z,61.07
2022-10-05T12:56:59.099Z,61.27
2022-10-05T13:00:00.597Z,61.01
2022-10-05T13:02:31.874Z,60.96
2022-10-05T13:05:12.163Z,60.56
2022-10-05T13:07:53.719Z,60.82
2022-10-05T13:10:31.432Z,60.22
2022-10-05T13:13:29.631Z,60.20
2022-10-05T13:16:17.110Z,60.49
2022-10-05T13:18:54.268Z,60.57
2022-10-05T13:21:49.857Z,60.40
2022-10-05T13:24:26.983Z,60.58
2022-10-05T13:26:59.388Z,60.16
2022-10-05T13:29:33.203Z,59.92
2022-10-05T13:32:04.890Z,59.79
2022-10-05T13:34:53.108Z,59.64
2022-10-05T13:37:29.337Z,60.36
2022-10-05T13:40:04.843Z,60.28
2022-10-05T13:42:35.137Z,59.72
2022-10-05T13:45:23.256Z,59.46
2022-10-05T13:48:13.570Z,59.00
2022-10-05T13:51:07.534Z,59.19
2022-10-05T13:53:45.379Z,57.72
2022-10-05T13:56:20.953Z,56.83
2022-10-05T13:59:16.065Z,55.03
2022-10-05T14:01:51.367Z,55.03
2022-10-05T14:04:22.086Z,55.07
2022-10-05T14:06:48.917Z,54.73
2022-10-05T14:09:30.229Z,54.70
2022-10-05T14:12:14.799Z,54.56
2022-10-05T14:14:52.355Z,54.90
2022-10-05T14:17:41.350Z,54.52
2022-10-05T14:20:23.373Z,53.79
2022-10-05T14:22:56.603Z,53.27
2022-10-05T14:25:23.454Z,53.54
2022-10-05T14:27:59.234Z,54.62
2022-10-05T14:30:27.677Z,54.07
2022-10-05T14:33:00.479Z,54.17
2022-10-05T14:35:50.732Z,54.04
2022-10-05T14:38:21.427Z,53.77
2022-10-05T14:41:02.758Z,54.03
2022-10-05T14:43:29.627Z,54.46
2022-10-05T14:46:23.216Z,54.92
2022-10-05T14:49:11.334Z,56.95
2022-10-05T14:51:38.237Z,56.71
2022-10-05T14:54:30.992Z,56.37
2022-10-05T14:57:18.826Z,56.58
2022-10-05T15:00:16.379Z,56.26
2022-10-05T15:03:16.125Z,56.89
2022-10-05T15:05:47.700Z,56.90
2022-10-05T15:08:52.981Z,57.05
2022-10-05T15:11:42.558Z,57.06
2022-10-05T15:14:17.702Z,56.75
2022-10-05T15:16:44.331Z,56.72
2022-10-05T15:19:15.968Z,56.73
2022-10-05T15:22:01.122Z,56.61
2022-10-05T15:24:34.154Z,56.77
2022-10-05T15:27:02.414Z,56.56
2022-10-05T15:29:52.437Z,55.96
2022-10-05T15:32:32.294Z,56.16
2022-10-05T15:35:36.772Z,56.20
2022-10-05T15:38:25.750Z,56.05
2022-10-05T15:41:18.125Z,56.14
2022-10-05T15:43:50.204Z,56.20
2022-10-05T15:46:36.013Z,56.41
2022-10-05T15:49:11.485Z,56.23
2022-10-05T15:51:42.256Z,56.15
2022-10-05T15:54:42.131Z,56.71
2022-10-05T15:57:35.228Z,56.38
2022-10-05T16:00:16.534Z,56.62
2022-10-05T16:03:11.151Z,56.98
2022-10-05T16:05:56.019Z,57.32
2022-10-05T16:08:49.781Z,57.51
2022-10-05T16:11:30.416Z,58.00
2022-10-05T16:14:32.605Z,58.43
2022-10-05T16:17:25.644Z,58.82
2022-10-05T16:19:58.022Z,58.91
2022-10-05T16:22:27.354Z,59.27
2022-10-05T16:25:17.247Z,59.68
2022-10-05T16:27:53.069Z,59.86
2022-10-05T16:30:22.384Z,60.39
2022-10-05T16:33:19.837Z,60.34
2022-10-05T16:35:49.143Z,60.91
2022-10-05T16:38:24.811Z,61.32
2022-10-05T16:41:14.517Z,61.62
2022-10-05T16:44:08.043Z,61.97
2022-10-05T16:46:53.789Z,62.08
2022-10-05T16:49:48.102Z,62.56
2022-10-05T16:52:19.120Z,62.85
2022-10-05T16:54:52.061Z,63.15
2022-10-05T16:57:21.925Z,63.40
2022-10-05T17:00:01.253Z,63.52
2022-10-05T17:02:50.900Z,63.58
2022-10-05T17:05:29.283Z,63.91
2022-10-05T17:08:26.376Z,64.43
2022-10-05T17:11:17.044Z,64.87
2022-10-05T17:14:11.076Z,65.07
2022-10-05T17:16:59.263Z,65.36
2022-10-05T17:19:37.677Z,65.68
2022-10-05T17:22:27.043Z,65.71
2022-10-05T17:25:06.788Z,66.00
2022-10-05T17:27:35.205Z,66.18
2022-10-05T17:30:36.134Z,66.54
2022-10-05T17:33:27.542Z,66.64
2022-10-05T17:36:03.126Z,66.81
2022-10-05T17:38:35.450Z,66.87
2022-10-05T17:41:20.108Z,67.19
2022-10-05T17:44:13.281Z,67.23
2022-10-05T17:46:45.602Z,67.35
2022-10-05T17:49:25.601Z,67.39
2022-10-05T17:52:10.714Z,67.36
2022-10-05T17:55:08.773Z,67.45
2022-10-05T17:57:36.836Z,67.41
2022-10-05T18:00:40.651Z,67.28
2022-10-05T18:03:42.027Z,67.28
2022-10-05T18:06:44.614Z,67.39
2022-10-05T18:09:13.868Z,67.27
2022-10-05T18:11:44.823Z,67.18
2022-10-05T18:14:24.538Z,66.90
2022-10-05T18:17:01.535Z,66.69
2022-10-05T18:19:32.306Z,66.48
2022-10-05T18:22:24.935Z,66.16
2022-10-05T18:25:06.354Z,66.02
2022-10-05T18:27:47.562Z,66.05
2022-10-05T18:30:19.143Z,65.73
2022-10-05T18:33:02.817Z,65.57
2022-10-05T18:35:47.371Z,65.67
2022-10-05T18:38:21.659Z,65.70
2022-10-05T18:41:09.112Z,65.61
2022-10-05T18:43:42.495Z,65.72
2022-10-05T18:46:16.348Z,65.76
2022-10-05T18:49:16.632Z,65.77
2022-10-05T18:52:08.058Z,65.92
2022-10-05T18:54:43.766Z,66.07
2022-10-05T18:57:38.101Z,66.19
2022-10-05T19:00:15.690Z,66.24
2022-10-05T19:02:57.019Z,66.41
2022-10-05T19:05:48.053Z,66.44
2022-10-05T19:08:34.167Z,66.35
2022-10-05T19:11:23.152Z,66.60
2022-10-05T19:13:52.466Z,66.69
2022-10-05T19:16:30.840Z,66.64
2022-10-05T19:19:28.403Z,66.75
2022-10-05T19:22:09.811Z,66.91
2022-10-05T19:24:57.379Z,67.03
2022-10-05T19:27:45.579Z,67.07
2022-10-05T19:30:25.248Z,67.19
2022-10-05T19:33:18.243Z,67.29
2022-10-05T19:35:58.264Z,67.41
2022-10-05T19:38:46.442Z,67.50
2022-10-05T19:41:45.269Z,67.54
2022-10-05T19:44:26.775Z,67.64
2022-10-05T19:47:06.874Z,67.84
2022-10-05T19:49:43.042Z,67.86
2022-10-05T19:52:13.749Z,67.94
2022-10-05T19:54:41.730Z,68.01
2022-10-05T19:57:17.000Z,68.19
2022-10-05T19:59:47.688Z,68.16
2022-10-05T20:02:16.811Z,68.11
2022-10-05T20:04:45.331Z,68.45
2022-10-05T20:07:24.276Z,68.42
2022-10-05T20:09:50.719Z,68.47
2022-10-05T20:12:17.199Z,68.49
2022-10-05T20:15:02.182Z,68.57
2022-10-05T20:17:48.055Z,68.75
2022-10-05T20:20:47.115Z,68.90
2022-10-05T20:23:27.925Z,69.18
2022-10-05T20:26:13.001Z,69.03
2022-10-05T20:28:39.597Z,69.24
2022-10-05T20:31:07.692Z,69.45
2022-10-05T20:33:34.459Z,69.61
2022-10-05T20:36:03.441Z,69.65
2022-10-05T20:38:30.814Z,70.04
2022-10-05T20:40:57.552Z,70.02
2022-10-05T20:43:24.033Z,70.15
2022-10-05T20:45:52.209Z,70.47
2022-10-05T20:48:19.467Z,70.84
2022-10-05T20:50:47.282Z,71.02
2022-10-05T20:53:13.804Z,71.11
2022-10-05T20:55:40.504Z,71.36
2022-10-05T20:58:08.895Z,71.44
2022-10-05T21:01:10.719Z,71.47
2022-10-05T21:03:37.402Z,71.71
2022-10-05T21:06:03.963Z,71.54
2022-10-05T21:08:30.824Z,71.71
2022-10-05T21:10:58.010Z,71.94
2022-10-05T21:13:25.431Z,71.77
2022-10-05T21:15:51.899Z,71.60
2022-10-05T21:18:20.103Z,71.41
2022-10-05T21:20:50.483Z,71.42
2022-10-05T21:23:16.863Z,71.11
2022-10-05T21:25:43.282Z,71.31
2022-10-05T21:28:09.889Z,71.16
2022-10-05T21:30:36.314Z,71.34
2022-10-05T21:33:02.715Z,71.43
2022-10-05T21:35:29.136Z,71.49
2022-10-05T21:37:55.530Z,71.73
2022-10-05T21:40:23.885Z,71.90
2022-10-05T21:42:50.265Z,71.68
2022-10-05T21:45:16.735Z,71.71
2022-10-05T21:47:43.147Z,71.98
2022-10-05T21:50:10.230Z,72.11
2022-10-05T21:52:36.747Z,72.36
2022-10-05T21:55:05.029Z,72.45
2022-10-05T21:57:31.940Z,72.66
2022-10-05T21:59:58.362Z,72.97
2022-10-05T22:02:24.803Z,73.29
2022-10-05T22:04:51.229Z,73.37
2022-10-05T22:07:19.079Z,73.50
2022-10-05T22:09:49.411Z,73.95
2022-10-05T22:12:16.020Z,74.64
2022-10-05T22:14:42.565Z,74.87
2022-10-05T22:17:21.570Z,75.23
2022-10-05T22:19:48.071Z,75.65
2022-10-05T22:22:14.480Z,76.00
2022-10-05T22:24:41.005Z,76.01
2022-10-05T22:27:07.568Z,75.90
2022-10-05T22:29:34.269Z,75.78
2022-10-05T22:32:00.705Z,75.60
2022-10-05T22:34:27.162Z,75.37
2022-10-05T22:36:53.612Z,75.60
2022-10-05T22:39:20.060Z,75.58
2022-10-05T22:41:46.665Z,75.93
2022-10-05T22:44:13.055Z,75.99
2022-10-05T22:46:39.724Z,75.97
2022-10-05T22:49:06.174Z,76.17
2022-10-05T22:51:32.566Z,76.22
2022-10-05T22:53:59.005Z,76.43
2022-10-05T22:56:25.398Z,76.32
2022-10-05T22:58:51.879Z,76.52
2022-10-05T23:01:19.059Z,76.79
2022-10-05T23:03:45.908Z,76.81
2022-10-05T23:06:18.874Z,76.71
2022-10-05T23:08:46.003Z,76.71
2022-10-05T23:11:14.678Z,76.86
2022-10-05T23:13:41.534Z,77.02
2022-10-05T23:16:08.722Z,77.00
2022-10-05T23:18:35.358Z,77.07
2022-10-05T23:21:02.133Z,77.16
2022-10-05T23:23:28.555Z,77.04
2022-10-05T23:26:02.071Z,77.27
2022-10-05T23:28:29.288Z,77.19
2022-10-05T23:31:04.941Z,77.07
2022-10-05T23:33:31.478Z,77.15
2022-10-05T23:36:27.995Z,77.18
2022-10-05T23:38:54.407Z,77.29
2022-10-05T23:41:20.883Z,77.57
2022-10-05T23:43:47.361Z,77.58
2022-10-05T23:46:14.293Z,77.53
2022-10-05T23:48:40.936Z,77.93
2022-10-05T23:51:09.745Z,78.02
2022-10-05T23:53:36.392Z,78.19
2022-10-05T23:56:02.826Z,78.21
2022-10-05T23:58:29.963Z,78.38
